Time;durP1;ratioP1;P1;durP2;ratioP2;P2;SDS_P1;SDS_P2;PMS_P1;PMS_P2;Temp;Humidity;BMP_temperature;BMP_pressure;BME280_temperature;BME280_humidity;BME280_pressure;Samples;Min_cycle;Max_cycle;Signal;HPM_P1;HPM_P2
2022/05/08 00:01:41;;;;;;;12.30;6.17;;;;;;;;;;5016612;28;20294;-79
2022/05/08 00:04:07;;;;;;;8.52;5.60;;;;;;;;;;5017435;28;20286;-78
2022/05/08 00:06:32;;;;;;;9.80;6.00;;;;;;;;;;5018002;28;20030;-79
2022/05/08 00:08:58;;;;;;;8.45;5.95;;;;;;;;;;5017388;28;20026;-79
2022/05/08 00:11:23;;;;;;;8.55;5.72;;;;;;;;;;5016399;28;20108;-79
2022/05/08 00:13:48;;;;;;;10.65;6.30;;;;;;;;;;5017000;28;20393;-79
2022/05/08 00:16:14;;;;;;;11.23;5.68;;;;;;;;;;5017513;28;20467;-78
2022/05/08 00:18:39;;;;;;;8.88;5.85;;;;;;;;;;5016742;28;20033;-79
2022/05/08 00:21:06;;;;;;;9.18;5.82;;;;;;;;;;5019330;28;20018;-78
2022/05/08 00:23:32;;;;;;;9.75;5.90;;;;;;;;;;5019155;28;20506;-78
2022/05/08 00:25:57;;;;;;;9.25;5.95;;;;;;;;;;5020409;28;20029;-79
2022/05/08 00:28:23;;;;;;;9.90;5.97;;;;;;;;;;5020292;28;20026;-78
2022/05/08 00:30:48;;;;;;;8.97;5.70;;;;;;;;;;5022221;28;20403;-78
2022/05/08 00:33:13;;;;;;;8.60;5.85;;;;;;;;;;5021948;28;20683;-79
2022/05/08 00:35:39;;;;;;;9.93;5.43;;;;;;;;;;5021490;28;20018;-79
2022/05/08 00:38:04;;;;;;;9.15;5.53;;;;;;;;;;5018802;28;20029;-78
2022/05/08 00:40:35;;;;;;;12.57;6.00;;;;;;;;;;5020142;28;20036;-77
2022/05/08 00:43:31;;;;;;;8.48;5.82;;;;;;;;;;5018985;28;20025;-78
2022/05/08 00:45:58;;;;;;;8.02;5.53;;;;;;;;;;5018608;28;20425;-80
2022/05/08 00:48:23;;;;;;;8.60;5.40;;;;;;;;;;5020142;28;20426;-79
2022/05/08 00:50:51;;;;;;;6.57;5.00;;;;;;;;;;5018954;28;20080;-78
2022/05/08 00:53:16;;;;;;;7.05;5.03;;;;;;;;;;5021257;28;20022;-78
2022/05/08 00:55:42;;;;;;;7.95;5.10;;;;;;;;;;5021046;28;20471;-79
2022/05/08 00:58:08;;;;;;;8.65;5.28;;;;;;;;;;5021138;28;20033;-79
2022/05/08 01:00:33;;;;;;;8.13;5.25;;;;;;;;;;5021319;28;20037;-78
2022/05/08 01:02:59;;;;;;;10.38;5.28;;;;;;;;;;5020913;28;20033;-78
2022/05/08 01:05:25;;;;;;;11.95;6.18;;;;;;;;;;5021126;28;20100;-78
2022/05/08 01:07:50;;;;;;;8.52;5.07;;;;;;;;;;5019733;28;20030;-79
2022/05/08 01:10:16;;;;;;;8.60;5.68;;;;;;;;;;5019490;28;20479;-79
2022/05/08 01:12:44;;;;;;;9.43;5.60;;;;;;;;;;5021320;28;20025;-79
2022/05/08 01:15:15;;;;;;;9.00;5.75;;;;;;;;;;5021181;28;20032;-79
2022/05/08 01:17:40;;;;;;;9.55;6.50;;;;;;;;;;5021722;28;20052;-79
2022/05/08 01:20:06;;;;;;;10.38;6.30;;;;;;;;;;5020369;28;20026;-79
2022/05/08 01:22:32;;;;;;;13.68;6.03;;;;;;;;;;5019529;28;20021;-78
2022/05/08 01:24:59;;;;;;;8.90;5.72;;;;;;;;;;5020519;28;20026;-78
2022/05/08 01:27:24;;;;;;;9.48;5.60;;;;;;;;;;5019932;28;20033;-79
2022/05/08 01:29:49;;;;;;;8.90;5.88;;;;;;;;;;5020682;28;20026;-78
2022/05/08 01:32:15;;;;;;;9.57;5.50;;;;;;;;;;5019119;28;20022;-79
2022/05/08 01:34:40;;;;;;;9.07;5.60;;;;;;;;;;5020150;28;20373;-79
2022/05/08 01:37:05;;;;;;;8.50;5.57;;;;;;;;;;5020157;28;20263;-79
2022/05/08 01:39:30;;;;;;;9.27;5.63;;;;;;;;;;5020577;28;20278;-79
2022/05/08 01:41:55;;;;;;;8.17;5.60;;;;;;;;;;5020460;28;20037;-78
2022/05/08 01:44:23;;;;;;;10.47;5.50;;;;;;;;;;5019157;28;20322;-78
2022/05/08 01:46:48;;;;;;;11.00;6.20;;;;;;;;;;5020029;28;20342;-78
2022/05/08 01:49:13;;;;;;;10.05;6.30;;;;;;;;;;5018548;28;20045;-79
2022/05/08 01:51:39;;;;;;;8.97;5.67;;;;;;;;;;5018485;28;20502;-78
2022/05/08 01:54:05;;;;;;;8.83;5.77;;;;;;;;;;5018616;28;20792;-78
2022/05/08 01:56:31;;;;;;;12.32;5.90;;;;;;;;;;5018639;28;20259;-78
2022/05/08 01:58:56;;;;;;;12.95;6.40;;;;;;;;;;5017897;28;20036;-78
2022/05/08 02:01:21;;;;;;;9.40;5.95;;;;;;;;;;5019367;28;20033;-79
2022/05/08 02:03:47;;;;;;;9.02;5.45;;;;;;;;;;5020222;28;20022;-79
2022/05/08 02:06:15;;;;;;;7.83;5.70;;;;;;;;;;5019868;28;20497;-78
2022/05/08 02:08:40;;;;;;;10.82;5.55;;;;;;;;;;5019396;28;20263;-79
2022/05/08 02:11:06;;;;;;;7.43;5.32;;;;;;;;;;5019426;28;20080;-78
2022/05/08 02:13:31;;;;;;;10.00;5.68;;;;;;;;;;5019600;28;20109;-79
2022/05/08 02:15:58;;;;;;;8.38;5.60;;;;;;;;;;5018292;28;20030;-78
2022/05/08 02:18:23;;;;;;;10.30;5.65;;;;;;;;;;5019237;28;20026;-78
2022/05/08 02:20:48;;;;;;;9.20;5.53;;;;;;;;;;5018320;28;20037;-78
2022/05/08 02:23:13;;;;;;;6.50;4.73;;;;;;;;;;5019427;28;20030;-78
2022/05/08 02:25:39;;;;;;;9.05;5.00;;;;;;;;;;5018943;28;20347;-78
2022/05/08 02:28:05;;;;;;;11.00;5.40;;;;;;;;;;5019233;28;20060;-79
2022/05/08 02:30:30;;;;;;;7.82;5.00;;;;;;;;;;5018135;28;20021;-78
2022/05/08 02:32:56;;;;;;;7.95;4.80;;;;;;;;;;5019200;28;20088;-77
2022/05/08 02:35:22;;;;;;;7.75;5.35;;;;;;;;;;5018816;28;20022;-78
2022/05/08 02:37:50;;;;;;;7.38;5.10;;;;;;;;;;5018181;28;20032;-78
2022/05/08 02:40:15;;;;;;;7.93;5.13;;;;;;;;;;5019041;28;20025;-78
2022/05/08 02:42:41;;;;;;;10.50;5.68;;;;;;;;;;5018675;28;20120;-79
2022/05/08 02:45:11;;;;;;;8.15;5.50;;;;;;;;;;5018352;28;20025;-77
2022/05/08 02:47:37;;;;;;;7.43;5.72;;;;;;;;;;5017249;28;20057;-77
2022/05/08 02:50:04;;;;;;;9.23;5.72;;;;;;;;;;5015836;28;20522;-79
2022/05/08 02:52:30;;;;;;;11.63;6.00;;;;;;;;;;5016174;28;20487;-78
2022/05/08 02:54:55;;;;;;;10.13;5.95;;;;;;;;;;5017983;28;20053;-79
2022/05/08 03:00:06;;;;;;;6.47;5.45;;;;;;;;;;5019094;28;20314;-79
2022/05/08 03:02:33;;;;;;;8.00;5.60;;;;;;;;;;5018606;28;20080;-79
2022/05/08 03:04:58;;;;;;;9.18;5.45;;;;;;;;;;5017353;28;20022;-78
2022/05/08 03:07:23;;;;;;;9.18;5.53;;;;;;;;;;5017051;28;20028;-79
2022/05/08 03:09:49;;;;;;;8.33;5.50;;;;;;;;;;5018899;28;20432;-79
2022/05/08 03:12:14;;;;;;;8.07;5.97;;;;;;;;;;5017247;28;20310;-79
2022/05/08 03:14:39;;;;;;;9.10;5.67;;;;;;;;;;5018068;28;20026;-79
2022/05/08 03:17:05;;;;;;;9.80;5.50;;;;;;;;;;5018104;28;20255;-79
2022/05/08 03:19:31;;;;;;;8.93;6.38;;;;;;;;;;5017565;28;20247;-77
2022/05/08 03:21:57;;;;;;;8.60;5.50;;;;;;;;;;5017275;28;20022;-79
2022/05/08 03:24:22;;;;;;;10.18;5.70;;;;;;;;;;5018276;28;20498;-79
2022/05/08 03:26:47;;;;;;;8.10;5.77;;;;;;;;;;5017409;28;20407;-79
2022/05/08 03:29:12;;;;;;;7.27;5.83;;;;;;;;;;5016593;28;20263;-78
2022/05/08 03:31:39;;;;;;;8.33;5.73;;;;;;;;;;5017386;28;20321;-79
2022/05/08 03:34:04;;;;;;;16.98;6.00;;;;;;;;;;5016756;28;20358;-78
2022/05/08 03:36:29;;;;;;;14.35;5.65;;;;;;;;;;5016734;28;20063;-78
2022/05/08 03:38:54;;;;;;;8.93;5.38;;;;;;;;;;5016501;28;20022;-79
2022/05/08 03:41:19;;;;;;;11.47;5.57;;;;;;;;;;5017213;28;20438;-79
2022/05/08 03:43:46;;;;;;;10.83;5.73;;;;;;;;;;5016695;28;20633;-78
2022/05/08 03:46:13;;;;;;;6.93;5.25;;;;;;;;;;5017021;28;20255;-79
2022/05/08 03:48:38;;;;;;;6.97;5.35;;;;;;;;;;5017765;28;20475;-79
2022/05/08 03:51:04;;;;;;;9.68;5.63;;;;;;;;;;5017950;28;20065;-79
2022/05/08 03:53:30;;;;;;;11.45;5.95;;;;;;;;;;5016629;28;20054;-79
2022/05/08 03:55:55;;;;;;;9.93;5.30;;;;;;;;;;5015513;28;20033;-79
2022/05/08 03:58:20;;;;;;;8.10;5.90;;;;;;;;;;5017772;28;20273;-79
2022/05/08 04:00:46;;;;;;;8.40;5.80;;;;;;;;;;5016063;28;20330;-79
2022/05/08 04:03:11;;;;;;;9.88;5.68;;;;;;;;;;5017044;28;20033;-79
2022/05/08 04:05:36;;;;;;;9.40;5.72;;;;;;;;;;5015646;28;20037;-78
2022/05/08 04:08:01;;;;;;;7.68;5.78;;;;;;;;;;5015915;28;20036;-78
2022/05/08 04:10:27;;;;;;;8.45;5.72;;;;;;;;;;5017037;28;20083;-78
2022/05/08 04:12:52;;;;;;;10.32;5.90;;;;;;;;;;5016876;28;20450;-78
2022/05/08 04:18:01;;;;;;;8.50;5.80;;;;;;;;;;5017339;28;20037;-79
2022/05/08 04:20:27;;;;;;;9.10;5.43;;;;;;;;;;5016670;28;20413;-80
2022/05/08 04:25:36;;;;;;;8.98;5.80;;;;;;;;;;5016083;28;20097;-79
2022/05/08 04:28:02;;;;;;;10.90;5.68;;;;;;;;;;5016914;28;20033;-79
2022/05/08 04:30:27;;;;;;;9.00;5.70;;;;;;;;;;5016202;28;20514;-79
2022/05/08 04:32:52;;;;;;;7.78;5.47;;;;;;;;;;5015661;28;20022;-78
2022/05/08 04:35:18;;;;;;;8.23;5.37;;;;;;;;;;5014220;28;20036;-79
2022/05/08 04:37:44;;;;;;;7.38;5.20;;;;;;;;;;5017143;28;20283;-80
2022/05/08 04:40:09;;;;;;;8.05;5.18;;;;;;;;;;5016920;28;20022;-79
2022/05/08 04:42:34;;;;;;;6.97;5.05;;;;;;;;;;5016886;28;20030;-79
2022/05/08 04:44:59;;;;;;;6.85;4.65;;;;;;;;;;5016220;28;20022;-79
2022/05/08 04:47:26;;;;;;;9.67;4.77;;;;;;;;;;5016597;28;20029;-79
2022/05/08 04:49:51;;;;;;;7.57;4.85;;;;;;;;;;5016667;28;20258;-79
2022/05/08 04:52:16;;;;;;;6.72;4.80;;;;;;;;;;5017289;28;20026;-79
2022/05/08 04:54:42;;;;;;;10.10;5.13;;;;;;;;;;5017929;28;20065;-79
2022/05/08 04:57:07;;;;;;;11.40;5.37;;;;;;;;;;5017011;28;20073;-79
2022/05/08 04:59:32;;;;;;;8.87;5.63;;;;;;;;;;5023337;28;20256;-78
2022/05/08 05:01:57;;;;;;;9.70;5.65;;;;;;;;;;5026561;28;20294;-78
2022/05/08 05:04:22;;;;;;;11.43;5.43;;;;;;;;;;5024897;28;20014;-78
2022/05/08 05:06:49;;;;;;;7.67;5.40;;;;;;;;;;5023704;28;20029;-78
2022/05/08 05:09:14;;;;;;;9.45;5.10;;;;;;;;;;5027383;28;20255;-78
2022/05/08 05:11:39;;;;;;;9.50;4.93;;;;;;;;;;5026933;28;20030;-78
2022/05/08 05:14:04;;;;;;;7.00;4.93;;;;;;;;;;5027749;28;20092;-78
2022/05/08 05:16:29;;;;;;;7.10;5.30;;;;;;;;;;5024627;28;20259;-78
2022/05/08 05:18:55;;;;;;;6.90;4.90;;;;;;;;;;5027786;28;20256;-79
2022/05/08 05:21:20;;;;;;;10.38;5.00;;;;;;;;;;5026744;28;20285;-79
2022/05/08 05:23:45;;;;;;;8.00;5.10;;;;;;;;;;5024932;28;20030;-79
2022/05/08 05:26:10;;;;;;;6.65;4.85;;;;;;;;;;5019747;28;20108;-77
2022/05/08 05:28:36;;;;;;;10.10;4.90;;;;;;;;;;5019551;28;20479;-79
2022/05/08 05:31:01;;;;;;;8.20;5.20;;;;;;;;;;5020437;28;20733;-79
2022/05/08 05:33:26;;;;;;;7.00;5.10;;;;;;;;;;5019356;28;20301;-77
2022/05/08 05:35:51;;;;;;;7.40;4.97;;;;;;;;;;5019962;28;20799;-79
2022/05/08 05:38:17;;;;;;;18.00;5.97;;;;;;;;;;5021112;28;20037;-79
2022/05/08 05:40:42;;;;;;;9.77;5.10;;;;;;;;;;5020676;28;20030;-79
2022/05/08 05:43:07;;;;;;;8.80;5.03;;;;;;;;;;5020727;28;20322;-79
2022/05/08 05:45:32;;;;;;;6.87;4.93;;;;;;;;;;5020809;28;20263;-79
2022/05/08 05:48:00;;;;;;;6.93;4.93;;;;;;;;;;5020688;28;20331;-79
2022/05/08 05:50:26;;;;;;;7.80;5.38;;;;;;;;;;5018769;28;20639;-79
2022/05/08 05:52:52;;;;;;;10.27;5.28;;;;;;;;;;5020139;28;20114;-79
2022/05/08 05:55:18;;;;;;;8.13;5.18;;;;;;;;;;5019210;28;20479;-78
2022/05/08 05:57:44;;;;;;;7.85;4.97;;;;;;;;;;5019287;28;20033;-78
2022/05/08 06:00:17;;;;;;;9.73;5.30;;;;;;;;;;5020319;28;20038;-78
2022/05/08 06:02:43;;;;;;;8.37;5.57;;;;;;;;;;5019417;28;20030;-79
2022/05/08 06:05:10;;;;;;;8.35;5.55;;;;;;;;;;5019469;28;20251;-78
2022/05/08 06:07:37;;;;;;;10.05;5.35;;;;;;;;;;5020267;28;20040;-78
2022/05/08 06:10:06;;;;;;;8.88;5.38;;;;;;;;;;5018581;28;20030;-78
2022/05/08 06:12:32;;;;;;;7.45;5.28;;;;;;;;;;5019415;28;20037;-78
2022/05/08 06:14:58;;;;;;;9.73;5.70;;;;;;;;;;5017247;28;20511;-78
2022/05/08 06:17:23;;;;;;;9.60;5.15;;;;;;;;;;5017324;28;20022;-78
2022/05/08 06:19:48;;;;;;;8.45;5.30;;;;;;;;;;5019336;28;20495;-79
2022/05/08 06:22:14;;;;;;;8.05;5.80;;;;;;;;;;5017897;28;20021;-78
2022/05/08 06:24:39;;;;;;;7.50;5.38;;;;;;;;;;5019544;28;20020;-79
2022/05/08 06:27:05;;;;;;;6.90;5.35;;;;;;;;;;5018332;28;20018;-78
2022/05/08 06:29:31;;;;;;;6.68;4.82;;;;;;;;;;5019428;28;20049;-79
2022/05/08 06:31:56;;;;;;;9.35;5.65;;;;;;;;;;5018153;28;20471;-79
2022/05/08 06:34:21;;;;;;;10.13;5.47;;;;;;;;;;5018458;28;20033;-78
2022/05/08 06:36:47;;;;;;;8.67;5.73;;;;;;;;;;5019304;28;20053;-79
2022/05/08 06:39:13;;;;;;;7.57;5.13;;;;;;;;;;5020069;28;20263;-79
2022/05/08 06:41:39;;;;;;;7.30;5.03;;;;;;;;;;5018625;28;20025;-78
2022/05/08 06:44:05;;;;;;;8.32;5.75;;;;;;;;;;5019332;28;20030;-79
2022/05/08 06:46:32;;;;;;;7.82;5.57;;;;;;;;;;5020010;28;20029;-79
2022/05/08 06:48:57;;;;;;;7.80;4.85;;;;;;;;;;5019337;28;20454;-79
2022/05/08 06:51:23;;;;;;;12.32;5.60;;;;;;;;;;5018215;28;20037;-79
2022/05/08 06:53:48;;;;;;;7.60;5.20;;;;;;;;;;5020470;28;20037;-78
2022/05/08 06:56:15;;;;;;;7.28;5.60;;;;;;;;;;5018453;28;20298;-79
2022/05/08 07:01:34;;;;;;;7.50;5.30;;;;;;;;;;5019663;28;20055;-79
2022/05/08 07:04:00;;;;;;;5.78;4.88;;;;;;;;;;5019404;28;20083;-79
2022/05/08 07:06:26;;;;;;;7.22;5.47;;;;;;;;;;5019236;28;20395;-79
2022/05/08 07:08:51;;;;;;;10.35;5.18;;;;;;;;;;5017864;28;20021;-79
2022/05/08 07:11:16;;;;;;;6.65;5.45;;;;;;;;;;5019041;28;20030;-79
2022/05/08 07:13:41;;;;;;;8.57;5.60;;;;;;;;;;5018330;28;20120;-78
2022/05/08 07:16:07;;;;;;;8.27;5.78;;;;;;;;;;5021580;28;20276;-79
2022/05/08 07:18:33;;;;;;;9.60;5.97;;;;;;;;;;5023523;28;20079;-77
2022/05/08 07:20:58;;;;;;;10.60;6.67;;;;;;;;;;5020718;28;20427;-80
2022/05/08 07:23:23;;;;;;;9.27;6.40;;;;;;;;;;5019879;28;20259;-78
2022/05/08 07:25:48;;;;;;;8.88;6.10;;;;;;;;;;5018386;28;20018;-79
2022/05/08 07:28:14;;;;;;;12.27;6.63;;;;;;;;;;5017655;28;20028;-79
2022/05/08 07:30:39;;;;;;;10.43;6.23;;;;;;;;;;5016949;28;20060;-80
2022/05/08 07:33:07;;;;;;;8.80;6.00;;;;;;;;;;5018286;28;20309;-78
2022/05/08 07:38:17;;;;;;;7.32;5.90;;;;;;;;;;5020052;28;20041;-79
2022/05/08 07:40:47;;;;;;;9.30;5.97;;;;;;;;;;5020783;28;20126;-79
2022/05/08 07:43:13;;;;;;;8.60;6.15;;;;;;;;;;5019860;28;20399;-78
2022/05/08 07:45:38;;;;;;;11.15;6.05;;;;;;;;;;5017733;28;20111;-80
2022/05/08 07:48:04;;;;;;;7.60;5.38;;;;;;;;;;5017089;28;20396;-79
2022/05/08 07:50:29;;;;;;;11.10;6.38;;;;;;;;;;5017404;28;20498;-79
2022/05/08 07:52:55;;;;;;;9.57;6.45;;;;;;;;;;5018642;28;20030;-79
2022/05/08 07:55:20;;;;;;;8.57;6.43;;;;;;;;;;5018153;28;20450;-78
2022/05/08 07:57:45;;;;;;;8.02;6.07;;;;;;;;;;5018640;28;20089;-79
2022/05/08 08:00:11;;;;;;;7.30;5.70;;;;;;;;;;5016894;28;20033;-80
2022/05/08 08:02:36;;;;;;;7.28;5.72;;;;;;;;;;5015972;28;20021;-78
2022/05/08 08:05:01;;;;;;;7.00;5.63;;;;;;;;;;5018270;28;20463;-79
2022/05/08 08:07:27;;;;;;;7.38;6.28;;;;;;;;;;5018118;28;20263;-81
2022/05/08 08:09:53;;;;;;;7.20;5.85;;;;;;;;;;5017293;28;20022;-80
2022/05/08 08:12:18;;;;;;;7.45;6.00;;;;;;;;;;5016822;28;20032;-80
2022/05/08 08:14:44;;;;;;;9.23;6.22;;;;;;;;;;5016806;28;20017;-81
2022/05/08 08:17:09;;;;;;;9.37;6.03;;;;;;;;;;5016446;28;20084;-79
2022/05/08 08:19:34;;;;;;;13.07;6.13;;;;;;;;;;5015834;28;20282;-79
2022/05/08 08:22:00;;;;;;;9.77;6.22;;;;;;;;;;5018234;28;20267;-79
2022/05/08 08:24:25;;;;;;;9.90;6.45;;;;;;;;;;5020988;28;20447;-79
2022/05/08 08:26:51;;;;;;;10.68;6.25;;;;;;;;;;5020132;28;20030;-80
2022/05/08 08:29:16;;;;;;;9.65;5.97;;;;;;;;;;5018422;28;20025;-80
2022/05/08 08:31:42;;;;;;;7.97;6.20;;;;;;;;;;5021162;28;20034;-79
2022/05/08 08:34:07;;;;;;;7.85;6.65;;;;;;;;;;5018091;28;20033;-78
2022/05/08 08:36:32;;;;;;;11.43;6.57;;;;;;;;;;5017509;28;20030;-80
2022/05/08 08:38:57;;;;;;;10.45;6.22;;;;;;;;;;5018310;28;20336;-79
2022/05/08 08:41:27;;;;;;;10.32;7.00;;;;;;;;;;5018925;28;20057;-79
2022/05/08 08:49:24;;;;;;;8.80;6.82;;;;;;;;;;5022719;28;20094;-79
2022/05/08 08:51:51;;;;;;;7.72;6.28;;;;;;;;;;5022048;28;20467;-78
2022/05/08 08:54:19;;;;;;;9.00;7.07;;;;;;;;;;5022396;28;20026;-78
2022/05/08 08:56:44;;;;;;;8.13;7.00;;;;;;;;;;5023435;28;20034;-78
2022/05/08 08:59:09;;;;;;;9.27;7.43;;;;;;;;;;5021853;28;20026;-80
2022/05/08 09:01:43;;;;;;;10.27;7.05;;;;;;;;;;5025453;28;20033;-81
2022/05/08 09:04:09;;;;;;;11.00;6.82;;;;;;;;;;5021624;28;20022;-80
2022/05/08 09:06:43;;;;;;;7.75;6.38;;;;;;;;;;5020817;28;20029;-79
2022/05/08 09:09:24;;;;;;;8.50;6.72;;;;;;;;;;5021748;28;20036;-80
2022/05/08 09:11:51;;;;;;;8.85;6.50;;;;;;;;;;5022160;28;20045;-81
2022/05/08 09:14:30;;;;;;;8.68;6.72;;;;;;;;;;5020473;28;20502;-78
2022/05/08 09:16:55;;;;;;;8.88;6.95;;;;;;;;;;5022377;28;20187;-80
2022/05/08 09:19:37;;;;;;;9.32;7.25;;;;;;;;;;5003359;28;20435;-79
2022/05/08 09:22:06;;;;;;;8.93;5.95;;;;;;;;;;5021222;28;20395;-78
2022/05/08 09:24:32;;;;;;;7.95;6.22;;;;;;;;;;5020543;28;20056;-78
2022/05/08 09:27:15;;;;;;;8.85;6.25;;;;;;;;;;5022221;28;20030;-80
2022/05/08 09:29:41;;;;;;;12.85;6.07;;;;;;;;;;5021733;28;20021;-80
2022/05/08 09:32:08;;;;;;;6.90;5.93;;;;;;;;;;5021456;28;20034;-80
2022/05/08 09:34:58;;;;;;;7.75;5.80;;;;;;;;;;5021207;28;20021;-80
2022/05/08 09:37:24;;;;;;;7.30;5.65;;;;;;;;;;5020710;28;20036;-80
2022/05/08 09:39:50;;;;;;;8.63;5.28;;;;;;;;;;5020230;28;20406;-78
2022/05/08 09:42:35;;;;;;;7.78;5.03;;;;;;;;;;5020527;28;20111;-79
2022/05/08 09:45:07;;;;;;;10.80;4.90;;;;;;;;;;5019169;28;20097;-79
2022/05/08 09:47:43;;;;;;;7.65;5.25;;;;;;;;;;5022094;28;20452;-79
2022/05/08 09:50:10;;;;;;;6.38;4.63;;;;;;;;;;5022234;28;20558;-79
2022/05/08 09:52:38;;;;;;;6.97;4.80;;;;;;;;;;5020997;28;20100;-78
2022/05/08 09:55:04;;;;;;;7.53;5.10;;;;;;;;;;5020679;28;20022;-79
2022/05/08 09:57:29;;;;;;;5.78;5.13;;;;;;;;;;5020456;28;20114;-80
2022/05/08 09:59:54;;;;;;;7.67;5.43;;;;;;;;;;5020892;28;20080;-81
2022/05/08 10:02:20;;;;;;;7.90;5.18;;;;;;;;;;5020756;28;20259;-80
2022/05/08 10:04:47;;;;;;;5.85;4.72;;;;;;;;;;5020889;28;20026;-80
2022/05/08 10:07:13;;;;;;;7.25;5.35;;;;;;;;;;5021642;28;20037;-79
2022/05/08 10:15:19;;;;;;;7.20;5.35;;;;;;;;;;5024116;28;20113;-80
2022/05/08 10:17:44;;;;;;;8.30;4.70;;;;;;;;;;5020871;28;20038;-82
2022/05/08 10:20:09;;;;;;;6.30;4.90;;;;;;;;;;5020770;28;20110;-80
2022/05/08 10:22:49;;;;;;;7.63;5.37;;;;;;;;;;5020775;28;20022;-82
2022/05/08 10:25:15;;;;;;;9.85;6.20;;;;;;;;;;5021899;28;20256;-79
2022/05/08 10:27:40;;;;;;;11.48;5.45;;;;;;;;;;5021758;28;20022;-80
2022/05/08 10:30:06;;;;;;;7.53;5.90;;;;;;;;;;5021138;28;20072;-79
2022/05/08 10:32:31;;;;;;;8.03;5.07;;;;;;;;;;5021159;28;20041;-79
2022/05/08 10:35:10;;;;;;;7.40;5.53;;;;;;;;;;5024921;28;20205;-78
2022/05/08 10:37:40;;;;;;;7.10;5.07;;;;;;;;;;5025142;28;20037;-79
2022/05/08 10:40:23;;;;;;;7.32;5.57;;;;;;;;;;5017726;28;20021;-75
2022/05/08 10:42:55;;;;;;;9.80;5.30;;;;;;;;;;5014170;28;20053;-73
2022/05/08 10:45:32;;;;;;;6.22;4.75;;;;;;;;;;5015568;28;20022;-74
2022/05/08 10:48:21;;;;;;;9.98;5.38;;;;;;;;;;5015268;28;20112;-75
2022/05/08 10:50:46;;;;;;;7.63;5.82;;;;;;;;;;5019678;28;20083;-80
2022/05/08 10:53:23;;;;;;;6.80;5.27;;;;;;;;;;5022125;28;20092;-80
2022/05/08 10:55:49;;;;;;;8.65;4.90;;;;;;;;;;5021861;28;20030;-80
2022/05/08 10:58:14;;;;;;;9.80;5.32;;;;;;;;;;5020450;28;20108;-80
2022/05/08 11:00:39;;;;;;;6.38;4.90;;;;;;;;;;5020726;28;20120;-80
2022/05/08 11:03:05;;;;;;;10.75;5.20;;;;;;;;;;5021388;28;20021;-79
2022/05/08 11:05:33;;;;;;;10.67;4.30;;;;;;;;;;5021109;28;20379;-80
2022/05/08 11:08:00;;;;;;;6.63;4.45;;;;;;;;;;5020427;28;20270;-79
2022/05/08 11:10:30;;;;;;;6.28;4.20;;;;;;;;;;5019582;28;20053;-82
2022/05/08 11:13:00;;;;;;;6.80;4.25;;;;;;;;;;5017940;28;20021;-79
2022/05/08 11:15:30;;;;;;;6.72;4.45;;;;;;;;;;5019640;28;20022;-78
2022/05/08 11:18:11;;;;;;;5.35;4.68;;;;;;;;;;5021132;28;20056;-79
2022/05/08 11:20:48;;;;;;;5.95;4.38;;;;;;;;;;5022103;28;20037;-80
2022/05/08 11:23:40;;;;;;;10.90;4.50;;;;;;;;;;5022636;28;20046;-79
2022/05/08 11:26:08;;;;;;;5.50;4.07;;;;;;;;;;5020417;28;20080;-79
2022/05/08 11:28:35;;;;;;;8.32;4.43;;;;;;;;;;5021190;28;20022;-78
2022/05/08 11:31:12;;;;;;;5.68;4.32;;;;;;;;;;5019760;28;20117;-78
2022/05/08 11:36:25;;;;;;;5.50;3.33;;;;;;;;;;5017233;28;20041;-78
2022/05/08 11:39:12;;;;;;;5.60;4.20;;;;;;;;;;5019187;28;20026;-80
2022/05/08 11:41:44;;;;;;;7.25;4.30;;;;;;;;;;5021376;28;20037;-78
2022/05/08 11:44:15;;;;;;;7.65;4.63;;;;;;;;;;5019841;28;20105;-78
2022/05/08 11:46:45;;;;;;;7.45;4.45;;;;;;;;;;5021375;28;20034;-78
2022/05/08 11:49:20;;;;;;;5.78;4.57;;;;;;;;;;5020543;28;20082;-78
2022/05/08 11:51:54;;;;;;;6.13;4.60;;;;;;;;;;5017011;28;20372;-77
2022/05/08 11:54:24;;;;;;;6.68;4.20;;;;;;;;;;5018223;28;20030;-78
2022/05/08 11:56:52;;;;;;;5.35;4.40;;;;;;;;;;5023215;28;20395;-78
2022/05/08 11:59:20;;;;;;;5.35;3.80;;;;;;;;;;5021474;28;20044;-81
2022/05/08 12:01:54;;;;;;;7.00;4.20;;;;;;;;;;5018583;28;20048;-78
2022/05/08 12:04:33;;;;;;;5.00;4.00;;;;;;;;;;5014519;28;20022;-77
2022/05/08 12:07:13;;;;;;;5.75;3.97;;;;;;;;;;5014325;28;20025;-77
2022/05/08 12:09:41;;;;;;;6.55;3.55;;;;;;;;;;5016584;28;20022;-79
2022/05/08 12:12:25;;;;;;;5.75;3.53;;;;;;;;;;5016646;28;20107;-79
2022/05/08 12:15:15;;;;;;;6.22;3.70;;;;;;;;;;5016128;28;20091;-77
2022/05/08 12:17:44;;;;;;;4.03;3.47;;;;;;;;;;5014680;28;20502;-78
2022/05/08 12:20:11;;;;;;;5.72;3.70;;;;;;;;;;5013304;28;20030;-77
2022/05/08 12:22:37;;;;;;;5.85;3.70;;;;;;;;;;5018224;28;20421;-78
2022/05/08 12:25:03;;;;;;;4.70;3.13;;;;;;;;;;5020492;28;20052;-79
2022/05/08 12:27:29;;;;;;;5.35;3.88;;;;;;;;;;5020311;28;20029;-78
2022/05/08 12:29:54;;;;;;;4.60;3.53;;;;;;;;;;5019668;28;20029;-78
2022/05/08 12:32:20;;;;;;;6.50;3.45;;;;;;;;;;5018506;28;20076;-79
2022/05/08 12:34:47;;;;;;;12.23;3.67;;;;;;;;;;5019678;28;20029;-79
2022/05/08 12:37:14;;;;;;;7.72;4.00;;;;;;;;;;5021921;28;20032;-79
2022/05/08 12:39:40;;;;;;;5.70;3.58;;;;;;;;;;5022404;28;20021;-79
2022/05/08 12:42:06;;;;;;;6.00;3.35;;;;;;;;;;5019935;28;20114;-81
2022/05/08 12:44:33;;;;;;;6.75;3.55;;;;;;;;;;5019246;28;20023;-79
2022/05/08 12:46:59;;;;;;;6.00;3.47;;;;;;;;;;5018256;28;20072;-80
2022/05/08 12:49:24;;;;;;;5.55;3.65;;;;;;;;;;5019185;28;20022;-79
2022/05/08 12:51:50;;;;;;;7.35;3.60;;;;;;;;;;5019621;28;20497;-79
2022/05/08 12:54:15;;;;;;;8.30;3.85;;;;;;;;;;5019562;28;20026;-78
2022/05/08 12:56:40;;;;;;;5.25;3.45;;;;;;;;;;5019152;28;20530;-79
2022/05/08 13:01:50;;;;;;;8.40;3.58;;;;;;;;;;5022111;28;20088;-78
2022/05/08 13:04:15;;;;;;;6.15;3.72;;;;;;;;;;5022534;28;20031;-79
2022/05/08 13:06:41;;;;;;;5.65;3.60;;;;;;;;;;5020306;28;20049;-79
2022/05/08 13:09:07;;;;;;;5.63;3.60;;;;;;;;;;5020066;28;20037;-79
2022/05/08 13:11:34;;;;;;;7.78;3.75;;;;;;;;;;5019077;28;20022;-80
2022/05/08 13:14:00;;;;;;;4.75;3.33;;;;;;;;;;5018505;28;20034;-77
2022/05/08 13:16:25;;;;;;;6.47;3.30;;;;;;;;;;5017914;28;20096;-78
2022/05/08 13:18:50;;;;;;;7.20;3.40;;;;;;;;;;5019277;28;20041;-77
2022/05/08 13:21:16;;;;;;;4.63;3.30;;;;;;;;;;5017893;28;20053;-79
2022/05/08 13:23:41;;;;;;;4.60;3.20;;;;;;;;;;5018580;28;20271;-78
2022/05/08 13:26:07;;;;;;;5.60;3.13;;;;;;;;;;5019022;28;20021;-78
2022/05/08 13:28:33;;;;;;;4.53;3.00;;;;;;;;;;5020332;28;20033;-79
2022/05/08 13:30:59;;;;;;;5.45;2.78;;;;;;;;;;5023252;28;20056;-79
2022/05/08 13:33:25;;;;;;;6.57;3.13;;;;;;;;;;5023959;28;20040;-79
2022/05/08 13:35:50;;;;;;;3.35;2.70;;;;;;;;;;5022546;28;20022;-79
2022/05/08 13:38:16;;;;;;;4.40;3.05;;;;;;;;;;5021200;28;20104;-80
2022/05/08 13:40:42;;;;;;;4.63;2.97;;;;;;;;;;5018883;28;20041;-79
2022/05/08 13:43:08;;;;;;;6.75;2.63;;;;;;;;;;5021780;28;20263;-78
2022/05/08 13:45:33;;;;;;;7.73;2.83;;;;;;;;;;5020906;28;20026;-80
2022/05/08 13:47:58;;;;;;;4.60;2.70;;;;;;;;;;5021105;28;20255;-80
2022/05/08 13:50:24;;;;;;;5.53;2.67;;;;;;;;;;5020753;28;20277;-80
2022/05/08 13:52:49;;;;;;;7.43;2.40;;;;;;;;;;5022722;28;20256;-79
2022/05/08 13:55:16;;;;;;;6.60;2.60;;;;;;;;;;5020671;28;20022;-80
2022/05/08 13:57:43;;;;;;;6.53;2.58;;;;;;;;;;5020389;28;20744;-78
2022/05/08 14:00:14;;;;;;;8.45;2.60;;;;;;;;;;5022051;28;20080;-80
2022/05/08 14:02:39;;;;;;;3.72;2.60;;;;;;;;;;5020368;28;20180;-80
2022/05/08 14:05:05;;;;;;;6.90;2.72;;;;;;;;;;5021414;28;20057;-79
2022/05/08 14:07:30;;;;;;;3.00;2.28;;;;;;;;;;5020936;28;20032;-80
2022/05/08 14:09:56;;;;;;;4.35;2.67;;;;;;;;;;5020173;28;20041;-79
2022/05/08 14:12:21;;;;;;;8.35;2.70;;;;;;;;;;5019284;28;20026;-79
2022/05/08 14:14:46;;;;;;;3.83;2.40;;;;;;;;;;5018128;28;20494;-78
2022/05/08 14:17:11;;;;;;;5.33;2.60;;;;;;;;;;5019163;28;20303;-79
2022/05/08 14:19:37;;;;;;;3.27;2.40;;;;;;;;;;5018955;28;20763;-79
2022/05/08 14:22:03;;;;;;;3.95;2.47;;;;;;;;;;5017355;28;20786;-79
2022/05/08 14:24:28;;;;;;;4.22;2.28;;;;;;;;;;5020511;28;20029;-79
2022/05/08 14:26:54;;;;;;;4.70;2.90;;;;;;;;;;5021368;28;20032;-79
2022/05/08 14:29:19;;;;;;;4.60;2.50;;;;;;;;;;5022362;28;20259;-79
2022/05/08 14:37:12;;;;;;;3.13;2.58;;;;;;;;;;5019060;28;20084;-78
2022/05/08 14:39:37;;;;;;;5.63;2.53;;;;;;;;;;5019458;28;20034;-78
2022/05/08 14:42:03;;;;;;;4.10;2.42;;;;;;;;;;5021416;28;20037;-78
2022/05/08 14:44:28;;;;;;;9.80;2.55;;;;;;;;;;5019093;28;20037;-80
2022/05/08 14:46:54;;;;;;;5.20;2.60;;;;;;;;;;5018281;28;20025;-79
2022/05/08 14:49:19;;;;;;;3.25;2.30;;;;;;;;;;5018169;28;20022;-79
2022/05/08 14:51:45;;;;;;;6.28;2.63;;;;;;;;;;5019390;28;20026;-79
2022/05/08 14:54:10;;;;;;;7.33;2.87;;;;;;;;;;5020509;28;20032;-80
2022/05/08 14:56:35;;;;;;;6.87;2.57;;;;;;;;;;5019650;28;20259;-80
2022/05/08 14:59:00;;;;;;;4.38;2.45;;;;;;;;;;5020052;28;20270;-79
2022/05/08 15:01:26;;;;;;;4.33;2.53;;;;;;;;;;5021495;28;20041;-79
2022/05/08 15:03:51;;;;;;;10.18;2.90;;;;;;;;;;5021716;28;20259;-79
2022/05/08 15:06:16;;;;;;;6.67;2.57;;;;;;;;;;5019322;28;20018;-79
2022/05/08 15:08:42;;;;;;;4.43;2.33;;;;;;;;;;5018987;28;20314;-80
2022/05/08 15:11:08;;;;;;;4.25;2.40;;;;;;;;;;5019598;28;20029;-77
2022/05/08 15:13:33;;;;;;;4.25;2.50;;;;;;;;;;5018972;28;20033;-80
2022/05/08 15:15:58;;;;;;;6.17;2.13;;;;;;;;;;5018111;28;20553;-78